Norasia Valparaiso — A8CJ9 — position and weather

sailwx.info

Track history (hours):
 
Tides and Currents Weather Stations Pressure Air Temp Water Temp Dewpoint Dewpoint Depression Visibility Wind Speed Wind Dir Waves Ship Positions

Norasia Valparaiso

Last reported at 2014-Dec-12 00:33 UTC. Time now 2014-Dec-21 01:54 UTC.
Position S 34°10' E 018°15'.
Warning: this ship's position is 9 days out of date.

Length 286.3 m; beam 32.2 m; draft 13.2 m.

Type: Ship (hazmat cat A). MMSI: 636090659.

Date/timePositionNaut miles runAvg speedWind from/ knotsBaromVisibWave heightAir tempDewpointWater temp
2014-Dec-12 00:33S 34°10' E 018°15'20517.1
2014-Dec-11 12:33S 34°47' E 022°20'  
2014-Dec-06 17:23S 20°11' E 057°14'1416.8
2014-Dec-06 16:33S 20°08' E 057°29'1 0.8
2014-Dec-06 15:33S 20°09' E 057°29'0 0.0
2014-Dec-06 14:33S 20°09' E 057°29'0 0.0
2014-Dec-06 13:33S 20°09' E 057°29'0 0.0
2014-Dec-06 12:33S 20°09' E 057°29'0 0.0
2014-Dec-06 11:27S 20°09' E 057°29'0 0.0
2014-Dec-06 10:33S 20°09' E 057°29'0 0.0
2014-Dec-06 09:33S 20°09' E 057°29'0 0.0
2014-Dec-06 08:33S 20°09' E 057°29'0 0.0
2014-Dec-06 07:33S 20°09' E 057°29'0 0.0
2014-Dec-06 06:33S 20°09' E 057°29'0 0.0
2014-Dec-06 05:33S 20°09' E 057°29'0 0.0
2014-Dec-06 04:33S 20°09' E 057°29'0 0.0
2014-Dec-06 03:33S 20°09' E 057°29'0 0.0
2014-Dec-06 02:30S 20°09' E 057°29'0 0.0
2014-Dec-06 01:33S 20°09' E 057°29'2 2.3
2014-Dec-06 00:33S 20°08' E 057°27'4 3.8
2014-Dec-05 23:33S 20°08' E 057°23'3 3.1
2014-Dec-05 22:33S 20°08' E 057°20'0 0.3
2014-Dec-05 21:33S 20°08' E 057°20'0 0.4
2014-Dec-05 20:33S 20°08' E 057°20'1 0.8
2014-Dec-05 19:33S 20°07' E 057°21'1 0.9
2014-Dec-05 18:33S 20°07' E 057°21'1 1.3
2014-Dec-05 17:33S 20°06' E 057°22'1 1.4
2014-Dec-05 16:33S 20°05' E 057°24'3 3.2
2014-Dec-05 15:33S 20°03' E 057°27'  
Track history (hours):
 
Tides and Currents Weather Stations Pressure Air Temp Water Temp Dewpoint Dewpoint Depression Visibility Wind Speed Wind Dir Waves Ship Positions

Norasia Valparaiso

Last reported at 2014-Dec-12 00:33 UTC. Time now 2014-Dec-21 01:54 UTC.
Position S 34°10' E 018°15'.
Warning: this ship's position is 9 days out of date.

Length 286.3 m; beam 32.2 m; draft 13.2 m.

Type: Ship (hazmat cat A). MMSI: 636090659.

Date/timePositionNaut miles runAvg speedWind from/ knotsBaromVisibWave heightAir tempDewpointWater temp
2014-Dec-12 00:33S 34°10' E 018°15'20517.1
2014-Dec-11 12:33S 34°47' E 022°20'  
2014-Dec-06 17:23S 20°11' E 057°14'1416.8
2014-Dec-06 16:33S 20°08' E 057°29'1 0.8
2014-Dec-06 15:33S 20°09' E 057°29'0 0.0
2014-Dec-06 14:33S 20°09' E 057°29'0 0.0
2014-Dec-06 13:33S 20°09' E 057°29'0 0.0
2014-Dec-06 12:33S 20°09' E 057°29'0 0.0
2014-Dec-06 11:27S 20°09' E 057°29'0 0.0
2014-Dec-06 10:33S 20°09' E 057°29'0 0.0
2014-Dec-06 09:33S 20°09' E 057°29'0 0.0
2014-Dec-06 08:33S 20°09' E 057°29'0 0.0
2014-Dec-06 07:33S 20°09' E 057°29'0 0.0
2014-Dec-06 06:33S 20°09' E 057°29'0 0.0
2014-Dec-06 05:33S 20°09' E 057°29'0 0.0
2014-Dec-06 04:33S 20°09' E 057°29'0 0.0
2014-Dec-06 03:33S 20°09' E 057°29'0 0.0
2014-Dec-06 02:30S 20°09' E 057°29'0 0.0
2014-Dec-06 01:33S 20°09' E 057°29'2 2.3
2014-Dec-06 00:33S 20°08' E 057°27'4 3.8
2014-Dec-05 23:33S 20°08' E 057°23'3 3.1
2014-Dec-05 22:33S 20°08' E 057°20'0 0.3
2014-Dec-05 21:33S 20°08' E 057°20'0 0.4
2014-Dec-05 20:33S 20°08' E 057°20'1 0.8
2014-Dec-05 19:33S 20°07' E 057°21'1 0.9
2014-Dec-05 18:33S 20°07' E 057°21'1 1.3
2014-Dec-05 17:33S 20°06' E 057°22'1 1.4
2014-Dec-05 16:33S 20°05' E 057°24'3 3.2
2014-Dec-05 15:33S 20°03' E 057°27'  

Dump ship's entire track history